createdAt,value
2017-07-11T00:01:58.305Z,100403.02
2017-07-11T00:04:30.842Z,100408.60
2017-07-11T00:07:03.117Z,100410.39
2017-07-11T00:09:35.396Z,100417.05
2017-07-11T00:12:07.791Z,100411.95
2017-07-11T00:14:40.085Z,100419.59
2017-07-11T00:17:12.521Z,100410.83
2017-07-11T00:19:44.917Z,100411.76
2017-07-11T00:22:17.589Z,100409.19
2017-07-11T00:24:59.993Z,100408.10
2017-07-11T00:27:32.207Z,100412.72
2017-07-11T00:30:05.567Z,100411.78
2017-07-11T00:32:37.941Z,100411.72
2017-07-11T00:35:10.694Z,100406.67
2017-07-11T00:37:43.080Z,100394.00
2017-07-11T00:40:16.245Z,100402.24
2017-07-11T00:42:48.565Z,100409.08
2017-07-11T00:45:21.079Z,100407.38
2017-07-11T00:47:54.698Z,100416.64
2017-07-11T00:50:27.086Z,100422.44
2017-07-11T00:52:59.176Z,100420.42
2017-07-11T00:55:31.687Z,100426.96
2017-07-11T00:58:04.016Z,100431.65
2017-07-11T01:00:36.890Z,100421.48
2017-07-11T01:03:08.886Z,100424.87
2017-07-11T01:05:42.352Z,100434.50
2017-07-11T01:08:14.694Z,100431.16
2017-07-11T01:10:47.086Z,100433.80
2017-07-11T01:13:19.432Z,100431.59
2017-07-11T01:15:51.934Z,100435.56
2017-07-11T01:18:24.150Z,100437.67
2017-07-11T01:20:56.489Z,100433.58
2017-07-11T01:23:28.884Z,100434.48
2017-07-11T01:26:01.346Z,100441.95
2017-07-11T01:28:33.542Z,100431.00
2017-07-11T01:31:06.025Z,100440.61
2017-07-11T01:33:38.289Z,100438.41
2017-07-11T01:36:10.629Z,100441.05
2017-07-11T01:38:43.057Z,100436.77
2017-07-11T01:41:15.298Z,100445.23
2017-07-11T01:43:47.459Z,100449.63
2017-07-11T01:46:19.840Z,100447.12
2017-07-11T01:48:52.226Z,100447.13
2017-07-11T01:51:24.640Z,100446.78
2017-07-11T01:53:57.047Z,100434.88
2017-07-11T01:56:29.432Z,100433.08
2017-07-11T01:59:01.933Z,100441.84
2017-07-11T02:01:35.202Z,100440.76
2017-07-11T02:04:07.670Z,100445.86
2017-07-11T02:06:40.030Z,100440.84
2017-07-11T02:09:12.347Z,100438.89
2017-07-11T02:11:44.806Z,100436.94
2017-07-11T02:14:17.357Z,100443.34
2017-07-11T02:16:49.873Z,100432.53
2017-07-11T02:19:22.148Z,100430.23
2017-07-11T02:21:54.913Z,100429.05
2017-07-11T02:24:26.782Z,100433.02
2017-07-11T02:26:59.102Z,100432.46
2017-07-11T02:29:32.201Z,100432.12
2017-07-11T02:32:04.800Z,100427.00
2017-07-11T02:34:37.295Z,100436.38
2017-07-11T02:37:09.642Z,100444.76
2017-07-11T02:39:41.967Z,100442.45
2017-07-11T02:42:14.541Z,100440.47
2017-07-11T02:44:46.795Z,100437.06
2017-07-11T02:47:19.165Z,100436.83
2017-07-11T02:49:51.548Z,100434.00
2017-07-11T02:52:23.817Z,100431.78
2017-07-11T02:54:56.173Z,100421.89
2017-07-11T02:57:28.546Z,100423.87
2017-07-11T03:00:00.872Z,100428.23
2017-07-11T03:02:33.224Z,100432.41
2017-07-11T03:05:05.628Z,100436.75
2017-07-11T03:07:38.352Z,100436.56
2017-07-11T03:10:10.414Z,100403.45
2017-07-11T03:12:43.668Z,100444.06
2017-07-11T03:15:16.082Z,100439.98
2017-07-11T03:17:48.522Z,100445.24
2017-07-11T03:20:20.874Z,100450.77
2017-07-11T03:22:53.264Z,100453.95
2017-07-11T03:25:25.548Z,100455.72
2017-07-11T03:27:57.976Z,100453.94
2017-07-11T03:30:30.353Z,100452.07
2017-07-11T03:33:03.792Z,100453.41
2017-07-11T03:35:36.105Z,100449.83
2017-07-11T03:38:08.460Z,100451.55
2017-07-11T03:40:40.712Z,100443.02
2017-07-11T03:43:13.102Z,100440.13
2017-07-11T03:45:45.485Z,100443.87
2017-07-11T03:48:18.650Z,100435.45
2017-07-11T03:50:51.193Z,100443.28
2017-07-11T03:53:23.592Z,100445.76
2017-07-11T03:55:56.041Z,100440.41
2017-07-11T03:58:28.483Z,100439.97
2017-07-11T04:01:00.864Z,100435.55
2017-07-11T04:03:34.090Z,100439.80
2017-07-11T04:06:06.641Z,100442.85
2017-07-11T04:08:39.102Z,100446.93
2017-07-11T04:11:11.536Z,100447.09
2017-07-11T04:13:43.931Z,100446.00
2017-07-11T04:16:16.330Z,100451.61
2017-07-11T04:18:49.551Z,100450.16
2017-07-11T04:21:22.016Z,100449.66
2017-07-11T04:23:55.333Z,100454.09
2017-07-11T04:26:27.660Z,100460.72
2017-07-11T04:29:00.084Z,100463.42
2017-07-11T04:31:32.428Z,100459.19
2017-07-11T04:34:05.005Z,100457.30
2017-07-11T04:36:37.369Z,100449.00
2017-07-11T04:39:09.762Z,100462.40
2017-07-11T04:41:42.209Z,100459.59
2017-07-11T04:44:14.618Z,100458.47
2017-07-11T04:46:46.903Z,100457.84
2017-07-11T04:49:19.340Z,100464.70
2017-07-11T04:51:51.626Z,100465.16
2017-07-11T04:54:24.093Z,100457.77
2017-07-11T04:56:56.546Z,100463.98
2017-07-11T04:59:28.916Z,100458.00
2017-07-11T05:02:01.359Z,100468.18
2017-07-11T05:04:33.823Z,100464.62
2017-07-11T05:07:06.152Z,100464.86
2017-07-11T05:09:38.690Z,100470.42
2017-07-11T05:12:11.013Z,100468.02
2017-07-11T05:14:43.337Z,100472.70
2017-07-11T05:17:15.692Z,100473.29
2017-07-11T05:19:48.025Z,100476.05
2017-07-11T05:22:20.401Z,100469.55
2017-07-11T05:24:53.638Z,100473.27
2017-07-11T05:27:25.999Z,100481.11
2017-07-11T05:29:58.285Z,100482.20
2017-07-11T05:32:30.733Z,100476.77
2017-07-11T05:35:03.047Z,100476.39
2017-07-11T05:37:35.177Z,100477.45
2017-07-11T05:40:07.444Z,100480.72
2017-07-11T05:42:39.815Z,100477.63
2017-07-11T05:45:12.090Z,100477.72
2017-07-11T05:47:44.424Z,100485.11
2017-07-11T05:50:17.861Z,100480.97
2017-07-11T05:52:50.205Z,100481.69
2017-07-11T05:55:22.681Z,100486.39
2017-07-11T05:57:55.089Z,100492.72
2017-07-11T06:00:27.509Z,100492.13
2017-07-11T06:02:59.897Z,100493.84
2017-07-11T06:05:32.397Z,100498.59
2017-07-11T06:08:04.847Z,100495.61
2017-07-11T06:10:37.248Z,100494.77
2017-07-11T06:13:09.544Z,100499.20
2017-07-11T06:15:41.913Z,100495.78
2017-07-11T06:18:14.343Z,100508.06
2017-07-11T06:20:46.720Z,100514.20
2017-07-11T06:23:19.108Z,100512.37
2017-07-11T06:25:52.281Z,100515.55
2017-07-11T06:28:24.742Z,100503.73
2017-07-11T06:30:58.010Z,100501.17
2017-07-11T06:33:30.621Z,100504.44
2017-07-11T06:36:03.204Z,100506.34
2017-07-11T06:38:35.654Z,100507.41
2017-07-11T06:41:08.305Z,100504.72
2017-07-11T06:43:40.381Z,100513.68
2017-07-11T06:46:13.112Z,100511.79
2017-07-11T06:48:45.232Z,100509.86
2017-07-11T06:51:17.488Z,100510.08
2017-07-11T06:53:49.960Z,100513.14
2017-07-11T06:56:22.424Z,100512.84
2017-07-11T06:58:54.756Z,100503.84
2017-07-11T07:01:27.567Z,100514.83
2017-07-11T07:03:59.613Z,100513.79
2017-07-11T07:06:31.988Z,100526.05
2017-07-11T07:09:04.389Z,100531.56
2017-07-11T07:11:36.786Z,100528.30
2017-07-11T07:14:09.341Z,100527.45
2017-07-11T07:16:41.637Z,100529.58
2017-07-11T07:19:13.876Z,100535.52
2017-07-11T07:21:46.362Z,100526.59
2017-07-11T07:24:18.768Z,100527.23
2017-07-11T07:26:51.525Z,100532.53
2017-07-11T07:29:24.338Z,100525.41
2017-07-11T07:31:56.917Z,100526.31
2017-07-11T07:34:28.885Z,100524.75
2017-07-11T07:37:01.534Z,100534.38
2017-07-11T07:39:33.776Z,100538.50
2017-07-11T07:42:06.157Z,100536.08
2017-07-11T07:44:38.667Z,100536.77
2017-07-11T07:47:11.024Z,100540.58
2017-07-11T07:49:43.340Z,100538.69
2017-07-11T07:52:15.713Z,100541.23
2017-07-11T07:54:48.116Z,100537.01
2017-07-11T07:57:20.522Z,100537.63
2017-07-11T07:59:52.973Z,100542.58
2017-07-11T08:02:25.529Z,100545.35
2017-07-11T08:04:57.958Z,100543.74
2017-07-11T08:07:30.317Z,100546.30
2017-07-11T08:10:02.768Z,100556.70
2017-07-11T08:12:35.485Z,100558.95
2017-07-11T08:15:07.450Z,100565.69
2017-07-11T08:17:39.894Z,100573.66
2017-07-11T08:20:12.465Z,100570.13
2017-07-11T08:22:44.602Z,100574.51
2017-07-11T08:25:17.013Z,100577.66
2017-07-11T08:27:49.417Z,100572.45
2017-07-11T08:30:21.650Z,100572.41
2017-07-11T08:32:55.138Z,100577.41
2017-07-11T08:35:27.472Z,100585.56
2017-07-11T08:38:00.005Z,100581.85
2017-07-11T08:40:32.399Z,100582.33
2017-07-11T08:43:04.784Z,100583.05
2017-07-11T08:45:37.069Z,100586.15
2017-07-11T08:48:09.560Z,100595.10
2017-07-11T08:50:41.845Z,100597.98
2017-07-11T08:53:14.567Z,100603.98
2017-07-11T08:55:46.777Z,100601.48
2017-07-11T08:58:18.906Z,100602.02
2017-07-11T09:00:51.289Z,100601.43
2017-07-11T09:03:23.749Z,100603.11
2017-07-11T09:05:56.244Z,100606.20
2017-07-11T09:08:28.616Z,100607.43
2017-07-11T09:11:00.970Z,100605.12
2017-07-11T09:13:33.347Z,100610.92
2017-07-11T09:16:05.721Z,100610.25
2017-07-11T09:18:38.065Z,100616.60
2017-07-11T09:21:10.349Z,100611.50
2017-07-11T09:23:43.131Z,100622.84
2017-07-11T09:26:15.202Z,100628.47
2017-07-11T09:28:47.574Z,100632.72
2017-07-11T09:31:19.939Z,100594.30
2017-07-11T09:33:52.456Z,100631.00
2017-07-11T09:36:24.901Z,100644.20
2017-07-11T09:38:57.169Z,100651.27
2017-07-11T09:41:29.845Z,100642.08
2017-07-11T09:44:01.840Z,100644.31
2017-07-11T09:46:34.193Z,100647.55
2017-07-11T09:49:06.684Z,100657.16
2017-07-11T09:51:39.193Z,100663.17
2017-07-11T09:54:11.592Z,100662.14
2017-07-11T09:56:44.248Z,100663.66
2017-07-11T09:59:17.486Z,100662.23
2017-07-11T10:01:49.999Z,100662.52
2017-07-11T10:04:22.609Z,100660.20
2017-07-11T10:06:55.025Z,100652.89
2017-07-11T10:09:27.237Z,100669.06
2017-07-11T10:12:00.055Z,100666.14
2017-07-11T10:14:33.133Z,100659.11
2017-07-11T10:17:05.489Z,100657.84
2017-07-11T10:19:37.902Z,100649.10
2017-07-11T10:22:10.388Z,100657.56
2017-07-11T10:24:42.873Z,100646.63
2017-07-11T10:27:15.229Z,100653.00
2017-07-11T10:29:47.658Z,100655.45
2017-07-11T10:45:25.288Z,100649.41
2017-07-11T10:47:57.518Z,100655.41
2017-07-11T10:50:29.733Z,100652.55
2017-07-11T10:53:02.211Z,100647.09
2017-07-11T10:55:34.449Z,100642.09
2017-07-11T10:58:07.033Z,100638.55
2017-07-11T11:00:39.891Z,100641.35
2017-07-11T11:03:12.613Z,100638.81
2017-07-11T11:05:46.036Z,100637.73
2017-07-11T11:08:18.544Z,100642.52
2017-07-11T11:10:51.053Z,100638.72
2017-07-11T11:13:23.406Z,100631.13
2017-07-11T11:15:55.717Z,100643.51
2017-07-11T11:18:28.281Z,100628.08
2017-07-11T11:21:00.473Z,100633.33
2017-07-11T11:23:32.934Z,100644.16
2017-07-11T11:26:05.339Z,100636.66
2017-07-11T11:28:38.593Z,100631.95
2017-07-11T11:31:11.115Z,100631.31
2017-07-11T11:33:43.766Z,100635.48
2017-07-11T11:36:15.945Z,100635.41
2017-07-11T11:38:48.513Z,100634.92
2017-07-11T11:41:20.684Z,100635.92
2017-07-11T11:43:53.363Z,100635.28
2017-07-11T11:46:25.938Z,100631.50
2017-07-11T11:48:57.982Z,100631.66
2017-07-11T11:51:30.352Z,100627.48
2017-07-11T11:54:03.085Z,100633.34
2017-07-11T11:56:35.792Z,100617.97
2017-07-11T11:59:08.730Z,100628.44
2017-07-11T12:01:41.054Z,100623.75
2017-07-11T12:04:13.244Z,100620.67
2017-07-11T12:06:45.584Z,100615.92
2017-07-11T12:09:17.914Z,100624.58
2017-07-11T12:11:50.301Z,100620.23
2017-07-11T12:14:22.636Z,100611.75
2017-07-11T12:16:54.973Z,100612.63
2017-07-11T12:19:27.325Z,100611.91
2017-07-11T12:21:59.669Z,100615.89
2017-07-11T12:24:32.040Z,100619.27
2017-07-11T12:27:04.413Z,100616.67
2017-07-11T12:29:36.838Z,100624.23
2017-07-11T12:32:09.192Z,100628.87
2017-07-11T12:34:41.421Z,100624.75
2017-07-11T12:37:13.862Z,100621.84
2017-07-11T12:39:46.341Z,100621.62
2017-07-11T12:42:18.692Z,100615.90
2017-07-11T12:44:51.945Z,100611.87
2017-07-11T12:47:24.429Z,100608.70
2017-07-11T12:49:56.844Z,100608.69
2017-07-11T12:52:29.321Z,100612.83
2017-07-11T12:55:01.721Z,100615.07
2017-07-11T12:57:34.120Z,100607.60
2017-07-11T13:00:06.639Z,100613.17
2017-07-11T13:02:39.060Z,100609.87
2017-07-11T13:05:11.446Z,100613.45
2017-07-11T13:07:43.786Z,100613.32
2017-07-11T13:10:17.437Z,100608.51
2017-07-11T13:12:49.492Z,100605.47
2017-07-11T13:15:21.901Z,100607.31
2017-07-11T13:17:54.258Z,100611.45
2017-07-11T13:20:26.693Z,100604.19
2017-07-11T13:22:59.015Z,100599.73
2017-07-11T13:25:31.292Z,100600.18
2017-07-11T13:28:03.641Z,100608.08
2017-07-11T13:30:35.953Z,100605.60
2017-07-11T13:33:08.380Z,100605.00
2017-07-11T13:35:40.784Z,100614.60
2017-07-11T13:38:13.808Z,100601.48
2017-07-11T13:40:46.545Z,100615.95
2017-07-11T13:43:18.858Z,100606.23
2017-07-11T13:45:52.098Z,100609.92
2017-07-11T13:48:24.573Z,100597.30
2017-07-11T13:50:56.913Z,100589.98
2017-07-11T13:53:29.432Z,100601.15
2017-07-11T13:56:01.916Z,100595.28
2017-07-11T13:58:34.276Z,100601.09
2017-07-11T14:01:06.801Z,100590.33
2017-07-11T14:03:39.254Z,100587.34
2017-07-11T14:06:11.730Z,100586.94
2017-07-11T14:08:44.170Z,100587.22
2017-07-11T14:11:16.614Z,100585.98
2017-07-11T14:13:49.036Z,100582.10
2017-07-11T14:16:21.425Z,100581.27
2017-07-11T14:18:53.894Z,100587.41
2017-07-11T14:21:26.194Z,100573.66
2017-07-11T14:23:58.620Z,100578.20
2017-07-11T14:26:31.126Z,100576.91
2017-07-11T14:29:03.480Z,100579.92
2017-07-11T14:31:35.876Z,100578.78
2017-07-11T14:34:08.214Z,100582.77
2017-07-11T14:36:40.625Z,100580.13
2017-07-11T14:39:12.955Z,100586.91
2017-07-11T14:41:46.192Z,100590.39
2017-07-11T14:44:18.669Z,100578.88
2017-07-11T14:46:52.032Z,100580.05
2017-07-11T14:49:25.366Z,100580.73
2017-07-11T14:51:57.969Z,100573.05
2017-07-11T14:54:30.310Z,100573.93
2017-07-11T14:57:02.762Z,100565.28
2017-07-11T14:59:35.194Z,100568.67
2017-07-11T15:02:07.513Z,100573.13
2017-07-11T15:04:39.977Z,100570.84
2017-07-11T15:07:12.594Z,100563.72
2017-07-11T15:09:45.071Z,100562.36
2017-07-11T15:12:17.523Z,100571.14
2017-07-11T15:14:50.021Z,100576.03
2017-07-11T15:17:22.657Z,100572.59
2017-07-11T15:19:54.728Z,100594.64
2017-07-11T15:22:27.212Z,100624.31
2017-07-11T15:24:59.674Z,100654.62
2017-07-11T15:27:32.105Z,100648.55
2017-07-11T15:30:04.930Z,100639.41
2017-07-11T15:32:37.034Z,100658.27
2017-07-11T15:35:09.413Z,100672.12
2017-07-11T15:37:42.058Z,100681.70
2017-07-11T15:40:14.036Z,100684.11
2017-07-11T15:42:47.490Z,100685.48
2017-07-11T15:45:19.873Z,100685.55
2017-07-11T15:47:52.227Z,100689.65
2017-07-11T15:50:24.548Z,100688.66
2017-07-11T15:52:56.933Z,100678.77
2017-07-11T15:55:29.181Z,100680.50
2017-07-11T15:58:01.458Z,100679.91
2017-07-11T16:00:33.923Z,100688.86
2017-07-11T16:03:06.380Z,100691.50
2017-07-11T16:05:39.380Z,100695.93
2017-07-11T16:08:12.823Z,100699.86
2017-07-11T16:10:45.452Z,100694.20
2017-07-11T16:13:17.946Z,100690.33
2017-07-11T16:15:50.214Z,100688.91
2017-07-11T16:18:22.738Z,100692.15
2017-07-11T16:20:55.082Z,100694.87
2017-07-11T16:23:28.180Z,100695.13
2017-07-11T16:26:00.788Z,100691.09
2017-07-11T16:28:33.209Z,100695.75
2017-07-11T16:31:05.559Z,100690.97
2017-07-11T16:33:38.029Z,100695.25
2017-07-11T16:36:11.549Z,100691.47
2017-07-11T16:38:43.757Z,100678.40
2017-07-11T16:41:16.158Z,100678.86
2017-07-11T16:43:48.536Z,100682.24
2017-07-11T16:46:20.931Z,100677.17
2017-07-11T16:48:53.385Z,100676.98
2017-07-11T18:13:35.438Z,100699.16
2017-07-11T18:16:07.832Z,100694.63
2017-07-11T18:18:40.251Z,100691.98
2017-07-11T18:21:12.622Z,100694.67
2017-07-11T18:23:46.055Z,100688.62
2017-07-11T18:26:18.609Z,100690.22
2017-07-11T18:28:51.077Z,100696.38
2017-07-11T18:31:23.381Z,100693.94
2017-07-11T18:33:55.652Z,100696.46
2017-07-11T18:36:28.017Z,100689.72
2017-07-11T18:39:00.401Z,100687.92
2017-07-11T18:41:32.682Z,100688.55
2017-07-11T18:44:05.084Z,100692.59
2017-07-11T18:46:37.539Z,100685.27
2017-07-11T18:49:18.070Z,100683.24
2017-07-11T18:51:50.500Z,100688.73
2017-07-11T18:54:23.020Z,100681.48
2017-07-11T18:56:57.296Z,100687.78
2017-07-11T18:59:30.007Z,100684.98
2017-07-11T19:02:02.110Z,100687.38
2017-07-11T19:04:34.500Z,100679.08
2017-07-11T19:07:07.009Z,100682.31
2017-07-11T19:09:39.395Z,100681.72
2017-07-11T19:12:11.784Z,100686.78
2017-07-11T19:14:46.033Z,100691.06
2017-07-11T19:17:18.452Z,100695.36
2017-07-11T19:19:50.772Z,100687.84
2017-07-11T19:22:23.269Z,100697.59
2017-07-11T19:24:55.444Z,100697.27
2017-07-11T19:27:27.669Z,100701.11
2017-07-11T19:30:00.389Z,100706.65
2017-07-11T19:32:32.692Z,100702.31
2017-07-11T19:35:05.235Z,100711.20
2017-07-11T19:37:38.522Z,100718.70
2017-07-11T19:40:10.850Z,100710.18
2017-07-11T19:42:43.206Z,100711.04
2017-07-11T19:45:15.624Z,100714.95
2017-07-11T19:47:47.952Z,100708.56
2017-07-11T19:50:20.217Z,100714.00
2017-07-11T19:52:52.493Z,100704.47
2017-07-11T19:55:26.027Z,100702.77
2017-07-11T19:57:58.490Z,100700.73
2017-07-11T20:00:30.636Z,100699.14
2017-07-11T20:03:03.031Z,100699.56
2017-07-11T20:05:35.364Z,100694.47
2017-07-11T20:08:07.670Z,100703.06
2017-07-11T20:10:40.005Z,100708.15
2017-07-11T20:13:13.386Z,100697.17
2017-07-11T20:15:46.077Z,100696.47
2017-07-11T20:18:18.395Z,100695.94
2017-07-11T20:20:50.884Z,100705.53
2017-07-11T20:23:23.224Z,100699.98
2017-07-11T20:25:55.564Z,100700.06
2017-07-11T20:28:27.905Z,100691.08
2017-07-11T20:31:00.672Z,100695.43
2017-07-11T20:33:32.644Z,100697.63
2017-07-11T20:36:05.372Z,100698.94
2017-07-11T20:38:37.849Z,100703.42
2017-07-11T20:41:09.987Z,100699.84
2017-07-11T20:43:42.569Z,100692.16
2017-07-11T20:46:14.671Z,100690.76
2017-07-11T20:48:47.080Z,100688.79
2017-07-11T20:51:20.665Z,100688.88
2017-07-11T20:53:53.270Z,100691.69
2017-07-11T20:56:26.509Z,100686.91
2017-07-11T20:58:59.201Z,100688.61
2017-07-11T21:01:31.537Z,100689.95
2017-07-11T21:04:03.792Z,100698.29
2017-07-11T21:06:42.953Z,100696.58
2017-07-11T21:09:15.604Z,100700.66
2017-07-11T21:11:48.377Z,100701.98
2017-07-11T21:14:20.438Z,100701.11
2017-07-11T21:16:52.837Z,100698.97
2017-07-11T21:19:25.205Z,100694.00
2017-07-11T21:21:57.778Z,100694.00
2017-07-11T21:24:30.131Z,100691.98
2017-07-11T21:27:02.697Z,100694.05
2017-07-11T21:29:34.933Z,100702.22
2017-07-11T21:32:07.772Z,100705.34
2017-07-11T21:34:39.681Z,100706.00
2017-07-11T21:37:12.020Z,100714.82
2017-07-11T21:39:44.461Z,100713.67
2017-07-11T21:42:16.956Z,100714.42
2017-07-11T21:44:49.327Z,100711.44
2017-07-11T21:47:21.758Z,100709.33
2017-07-11T21:49:54.589Z,100705.16
2017-07-11T21:52:26.609Z,100716.13
2017-07-11T21:54:58.988Z,100713.50
2017-07-11T21:57:31.371Z,100707.62
2017-07-11T22:00:03.785Z,100704.38
2017-07-11T22:02:36.160Z,100702.61
2017-07-11T22:05:08.727Z,100695.77
2017-07-11T22:07:42.054Z,100708.28
2017-07-11T22:10:14.493Z,100703.97
2017-07-11T22:12:46.922Z,100701.64
2017-07-11T22:15:19.356Z,100704.84
2017-07-11T22:17:52.356Z,100701.42
2017-07-11T22:20:24.232Z,100703.62
2017-07-11T22:22:56.830Z,100701.96
2017-07-11T22:25:29.150Z,100698.92
2017-07-11T22:28:01.473Z,100687.25
2017-07-11T22:30:34.200Z,100694.94
2017-07-11T22:33:06.295Z,100699.36
2017-07-11T22:35:38.729Z,100687.34
2017-07-11T22:38:11.422Z,100692.70
2017-07-11T22:40:45.186Z,100681.67
2017-07-11T22:43:17.024Z,100673.67
2017-07-11T22:45:49.458Z,100677.23
2017-07-11T22:48:21.807Z,100672.17
2017-07-11T22:50:54.140Z,100669.92
2017-07-11T22:53:26.546Z,100671.72
2017-07-11T22:55:58.909Z,100668.56
2017-07-11T22:58:31.368Z,100664.56
2017-07-11T23:01:04.588Z,100664.16
2017-07-11T23:03:37.228Z,100664.99
2017-07-11T23:06:09.993Z,100663.81
2017-07-11T23:08:43.017Z,100657.43
2017-07-11T23:11:15.438Z,100658.24
2017-07-11T23:13:47.900Z,100652.39
2017-07-11T23:16:20.216Z,100651.03
2017-07-11T23:18:52.716Z,100649.49
2017-07-11T23:21:24.898Z,100652.62
2017-07-11T23:23:57.397Z,100654.16
2017-07-11T23:26:29.617Z,100651.11
2017-07-11T23:29:01.965Z,100648.92
2017-07-11T23:31:34.419Z,100648.66
2017-07-11T23:34:06.845Z,100639.79
2017-07-11T23:36:39.189Z,100636.45
2017-07-11T23:39:11.573Z,100636.83
2017-07-11T23:41:43.998Z,100624.55
2017-07-11T23:44:16.340Z,100629.33
2017-07-11T23:46:48.765Z,100627.77
2017-07-11T23:49:21.094Z,100623.87
2017-07-11T23:51:53.548Z,100623.53
2017-07-11T23:54:25.976Z,100618.86
2017-07-11T23:56:58.396Z,100609.56
2017-07-11T23:59:30.769Z,100608.12
